createdAt,value
2017-08-17T00:00:39.134Z,970.52
2017-08-17T00:01:39.130Z,970.56
2017-08-17T00:02:39.127Z,970.52
2017-08-17T00:03:39.126Z,970.49
2017-08-17T00:04:39.122Z,970.51
2017-08-17T00:05:39.120Z,970.52
2017-08-17T00:06:39.149Z,970.49
2017-08-17T00:07:39.115Z,970.5
2017-08-17T00:08:39.111Z,970.51
2017-08-17T00:09:39.110Z,970.45
2017-08-17T00:10:39.108Z,970.45
2017-08-17T00:11:39.103Z,970.43
2017-08-17T00:12:39.102Z,970.4
2017-08-17T00:13:39.097Z,970.39
2017-08-17T00:14:39.096Z,970.36
2017-08-17T00:15:39.093Z,970.36
2017-08-17T00:16:39.090Z,970.37
2017-08-17T00:17:39.088Z,970.39
2017-08-17T00:18:39.086Z,970.38
2017-08-17T00:19:39.082Z,970.37
2017-08-17T00:20:39.078Z,970.37
2017-08-17T00:21:39.076Z,970.39
2017-08-17T00:22:39.074Z,970.37
2017-08-17T00:23:39.070Z,970.44
2017-08-17T00:24:39.069Z,970.44
2017-08-17T00:25:39.066Z,970.42
2017-08-17T00:26:39.064Z,970.48
2017-08-17T00:27:39.060Z,970.45
2017-08-17T00:28:39.057Z,970.39
2017-08-17T00:29:39.054Z,970.38
2017-08-17T00:30:39.052Z,970.38
2017-08-17T00:31:39.049Z,970.34
2017-08-17T00:32:39.046Z,970.34
2017-08-17T00:33:39.043Z,970.29
2017-08-17T00:34:39.040Z,970.26
2017-08-17T00:35:39.038Z,970.26
2017-08-17T00:36:39.036Z,970.28
2017-08-17T00:37:39.032Z,970.21
2017-08-17T00:38:39.031Z,970.24
2017-08-17T00:39:39.040Z,970.29
2017-08-17T00:40:39.025Z,970.27
2017-08-17T00:41:39.021Z,970.29
2017-08-17T00:42:39.019Z,970.31
2017-08-17T00:43:39.017Z,970.26
2017-08-17T00:44:39.011Z,970.3
2017-08-17T00:45:39.010Z,970.27
2017-08-17T00:46:39.007Z,970.28
2017-08-17T00:47:39.004Z,970.27
2017-08-17T00:48:39.000Z,970.26
2017-08-17T00:49:38.999Z,970.22
2017-08-17T00:50:38.996Z,970.27
2017-08-17T00:51:38.993Z,970.22
2017-08-17T00:52:38.989Z,970.24
2017-08-17T00:53:38.988Z,970.24
2017-08-17T00:54:38.985Z,970.29
2017-08-17T00:55:38.982Z,970.27
2017-08-17T00:56:38.977Z,970.27
2017-08-17T00:57:38.977Z,970.24
2017-08-17T00:58:38.973Z,970.28
2017-08-17T00:59:38.970Z,970.22
2017-08-17T01:00:38.967Z,970.21
2017-08-17T01:01:38.966Z,970.2
2017-08-17T01:02:38.963Z,970.19
2017-08-17T01:03:38.959Z,970.2
2017-08-17T01:04:38.955Z,970.17
2017-08-17T01:05:38.955Z,970.18
2017-08-17T01:06:38.950Z,970.15
2017-08-17T01:07:38.948Z,970.21
2017-08-17T01:08:38.945Z,970.19
2017-08-17T01:09:38.943Z,970.22
2017-08-17T01:10:38.937Z,970.25
2017-08-17T01:11:38.937Z,970.25
2017-08-17T01:12:38.935Z,970.22
2017-08-17T01:13:38.931Z,970.24
2017-08-17T01:14:38.929Z,970.23
2017-08-17T01:15:38.926Z,970.21
2017-08-17T01:16:38.923Z,970.21
2017-08-17T01:17:38.920Z,970.23
2017-08-17T01:18:38.918Z,970.25
2017-08-17T01:19:38.915Z,970.29
2017-08-17T01:20:38.913Z,970.32
2017-08-17T01:21:38.911Z,970.37
2017-08-17T01:22:38.906Z,970.38
2017-08-17T01:23:38.905Z,970.36
2017-08-17T01:24:38.906Z,970.38
2017-08-17T01:25:38.900Z,970.38
2017-08-17T01:26:38.895Z,970.43
2017-08-17T01:27:38.893Z,970.46
2017-08-17T01:28:38.889Z,970.46
2017-08-17T01:29:38.885Z,970.5
2017-08-17T01:30:38.883Z,970.49
2017-08-17T01:31:38.881Z,970.49
2017-08-17T01:32:38.878Z,970.48
2017-08-17T01:33:38.874Z,970.48
2017-08-17T01:34:38.878Z,970.47
2017-08-17T01:35:38.868Z,970.52
2017-08-17T01:36:38.865Z,970.55
2017-08-17T01:37:38.864Z,970.53
2017-08-17T01:38:38.862Z,970.56
2017-08-17T01:39:38.861Z,970.56
2017-08-17T01:40:38.855Z,970.57
2017-08-17T01:41:38.852Z,970.53
2017-08-17T01:42:38.849Z,970.55
2017-08-17T01:43:38.851Z,970.52
2017-08-17T01:44:38.844Z,970.55
2017-08-17T01:45:38.841Z,970.54
2017-08-17T01:46:38.837Z,970.5
2017-08-17T01:47:38.834Z,970.46
2017-08-17T01:48:38.832Z,970.45
2017-08-17T01:49:38.830Z,970.42
2017-08-17T01:50:38.829Z,970.41
2017-08-17T01:51:38.822Z,970.43
2017-08-17T01:52:38.819Z,970.41
2017-08-17T01:53:38.817Z,970.39
2017-08-17T01:54:38.813Z,970.39
2017-08-17T01:55:38.811Z,970.39
2017-08-17T01:56:38.808Z,970.41
2017-08-17T01:57:38.805Z,970.4
2017-08-17T01:58:38.802Z,970.36
2017-08-17T01:59:38.801Z,970.36
2017-08-17T02:00:38.797Z,970.36
2017-08-17T02:01:38.794Z,970.38
2017-08-17T02:02:38.791Z,970.34
2017-08-17T02:03:38.789Z,970.33
2017-08-17T02:04:38.785Z,970.36
2017-08-17T02:05:38.782Z,970.29
2017-08-17T02:06:38.780Z,970.29
2017-08-17T02:07:38.777Z,970.25
2017-08-17T02:08:38.773Z,970.25
2017-08-17T02:09:38.770Z,970.24
2017-08-17T02:10:38.768Z,970.29
2017-08-17T02:11:38.766Z,970.31
2017-08-17T02:12:38.762Z,970.32
2017-08-17T02:13:38.761Z,970.31
2017-08-17T02:14:38.759Z,970.31
2017-08-17T02:15:38.755Z,970.35
2017-08-17T02:16:38.749Z,970.32
2017-08-17T02:17:38.748Z,970.28
2017-08-17T02:18:38.744Z,970.27
2017-08-17T02:19:38.743Z,970.32
2017-08-17T02:20:38.739Z,970.28
2017-08-17T02:21:38.737Z,970.29
2017-08-17T02:22:38.736Z,970.27
2017-08-17T02:23:38.730Z,970.25
2017-08-17T02:24:38.729Z,970.24
2017-08-17T02:25:38.725Z,970.19
2017-08-17T02:26:38.723Z,970.23
2017-08-17T02:27:38.719Z,970.24
2017-08-17T02:28:38.715Z,970.26
2017-08-17T02:29:38.712Z,970.25
2017-08-17T02:30:38.709Z,970.28
2017-08-17T02:31:38.707Z,970.25
2017-08-17T02:32:38.703Z,970.22
2017-08-17T02:33:38.701Z,970.21
2017-08-17T02:34:38.699Z,970.23
2017-08-17T02:35:38.696Z,970.14
2017-08-17T02:36:38.691Z,970.17
2017-08-17T02:37:38.690Z,970.18
2017-08-17T02:38:38.685Z,970.19
2017-08-17T02:39:38.687Z,970.17
2017-08-17T02:40:38.681Z,970.18
2017-08-17T02:41:38.677Z,970.16
2017-08-17T02:42:38.674Z,970.22
2017-08-17T02:43:38.671Z,970.18
2017-08-17T02:44:38.669Z,970.18
2017-08-17T02:45:38.666Z,970.16
2017-08-17T02:46:38.663Z,970.18
2017-08-17T02:47:38.660Z,970.19
2017-08-17T02:48:38.657Z,970.18
2017-08-17T02:49:38.655Z,970.16
2017-08-17T02:50:38.652Z,970.2
2017-08-17T02:51:38.651Z,970.22
2017-08-17T02:52:38.646Z,970.23
2017-08-17T02:53:38.642Z,970.21
2017-08-17T02:54:38.641Z,970.25
2017-08-17T02:55:38.639Z,970.27
2017-08-17T02:56:38.633Z,970.27
2017-08-17T02:57:38.631Z,970.26
2017-08-17T02:58:38.630Z,970.24
2017-08-17T02:59:38.624Z,970.22
2017-08-17T03:00:38.622Z,970.24
2017-08-17T03:01:38.620Z,970.24
2017-08-17T03:02:38.616Z,970.26
2017-08-17T03:03:38.614Z,970.23
2017-08-17T03:04:38.611Z,970.24
2017-08-17T03:05:38.608Z,970.24
2017-08-17T03:06:38.608Z,970.27
2017-08-17T03:07:38.602Z,970.28
2017-08-17T03:08:38.598Z,970.27
2017-08-17T03:09:38.595Z,970.28
2017-08-17T03:10:38.594Z,970.33
2017-08-17T03:11:38.589Z,970.33
2017-08-17T03:12:38.587Z,970.3
2017-08-17T03:13:38.586Z,970.32
2017-08-17T03:14:38.581Z,970.33
2017-08-17T03:15:38.578Z,970.3
2017-08-17T03:16:38.575Z,970.29
2017-08-17T03:17:38.573Z,970.31
2017-08-17T03:18:38.594Z,970.3
2017-08-17T03:19:38.565Z,970.26
2017-08-17T03:20:38.562Z,970.26
2017-08-17T03:21:38.560Z,970.26
2017-08-17T03:22:38.556Z,970.27
2017-08-17T03:23:38.554Z,970.25
2017-08-17T03:24:38.550Z,970.28
2017-08-17T03:25:38.547Z,970.3
2017-08-17T03:26:38.544Z,970.28
2017-08-17T03:27:38.541Z,970.32
2017-08-17T03:28:38.540Z,970.31
2017-08-17T03:29:38.535Z,970.27
2017-08-17T03:30:38.533Z,970.29
2017-08-17T03:31:38.530Z,970.31
2017-08-17T03:32:38.525Z,970.3
2017-08-17T03:33:38.524Z,970.3
2017-08-17T03:34:38.522Z,970.31
2017-08-17T03:35:38.519Z,970.3
2017-08-17T03:36:38.514Z,970.29
2017-08-17T03:37:38.511Z,970.3
2017-08-17T03:38:38.507Z,970.28
2017-08-17T03:39:38.507Z,970.29
2017-08-17T03:40:38.503Z,970.28
2017-08-17T03:41:38.499Z,970.28
2017-08-17T03:42:38.496Z,970.29
2017-08-17T03:43:38.493Z,970.34
2017-08-17T03:44:38.489Z,970.36
2017-08-17T03:45:38.487Z,970.29
2017-08-17T03:46:38.484Z,970.29
2017-08-17T03:47:38.480Z,970.3
2017-08-17T03:48:38.479Z,970.3
2017-08-17T03:49:38.474Z,970.26
2017-08-17T03:50:38.473Z,970.28
2017-08-17T03:51:38.470Z,970.24
2017-08-17T03:52:38.467Z,970.24
2017-08-17T03:53:38.463Z,970.21
2017-08-17T03:54:38.458Z,970.26
2017-08-17T03:55:38.457Z,970.26
2017-08-17T03:56:38.453Z,970.23
2017-08-17T03:57:38.453Z,970.25
2017-08-17T03:58:38.448Z,970.26
2017-08-17T03:59:38.446Z,970.22
2017-08-17T04:00:38.441Z,970.24
2017-08-17T04:01:38.438Z,970.2
2017-08-17T04:02:38.436Z,970.21
2017-08-17T04:03:38.433Z,970.16
2017-08-17T04:04:38.429Z,970.15
2017-08-17T04:05:38.426Z,970.14
2017-08-17T04:06:38.424Z,970.15
2017-08-17T04:07:38.420Z,970.17
2017-08-17T04:08:38.419Z,970.16
2017-08-17T04:09:38.416Z,970.14
2017-08-17T04:10:38.411Z,970.13
2017-08-17T04:11:38.410Z,970.09
2017-08-17T04:12:38.407Z,970.11
2017-08-17T04:13:38.403Z,970.09
2017-08-17T04:14:38.400Z,970.15
2017-08-17T04:15:38.396Z,970.1
2017-08-17T04:16:38.393Z,970.15
2017-08-17T04:17:38.392Z,970.19
2017-08-17T04:18:38.387Z,970.18
2017-08-17T04:19:38.385Z,970.21
2017-08-17T04:20:38.382Z,970.21
2017-08-17T04:21:38.379Z,970.23
2017-08-17T04:22:38.376Z,970.18
2017-08-17T04:23:38.372Z,970.16
2017-08-17T04:24:38.369Z,970.23
2017-08-17T04:25:38.370Z,970.25
2017-08-17T04:26:38.365Z,970.27
2017-08-17T04:27:38.368Z,970.29
2017-08-17T04:28:38.358Z,970.31
2017-08-17T04:29:38.354Z,970.34
2017-08-17T04:30:38.352Z,970.35
2017-08-17T04:31:38.349Z,970.38
2017-08-17T04:32:38.345Z,970.38
2017-08-17T04:33:38.342Z,970.39
2017-08-17T04:34:38.339Z,970.36
2017-08-17T04:35:38.336Z,970.4
2017-08-17T04:36:38.333Z,970.37
2017-08-17T04:37:38.334Z,970.36
2017-08-17T04:38:38.327Z,970.39
2017-08-17T04:39:38.325Z,970.42
2017-08-17T04:40:38.322Z,970.45
2017-08-17T04:41:38.319Z,970.42
2017-08-17T04:42:38.315Z,970.47
2017-08-17T04:43:38.313Z,970.48
2017-08-17T04:44:38.310Z,970.53
2017-08-17T04:45:38.305Z,970.55
2017-08-17T04:46:38.304Z,970.55
2017-08-17T04:47:38.301Z,970.53
2017-08-17T04:48:38.297Z,970.53
2017-08-17T04:49:38.295Z,970.53
2017-08-17T04:50:38.292Z,970.55
2017-08-17T04:51:38.289Z,970.53
2017-08-17T04:52:38.287Z,970.53
2017-08-17T04:53:38.282Z,970.56
2017-08-17T04:54:38.278Z,970.52
2017-08-17T04:55:38.276Z,970.54
2017-08-17T04:56:38.272Z,970.57
2017-08-17T04:57:38.271Z,970.55
2017-08-17T04:58:38.268Z,970.58
2017-08-17T04:59:38.267Z,970.55
2017-08-17T05:00:38.262Z,970.56
2017-08-17T05:01:38.260Z,970.55
2017-08-17T05:02:38.256Z,970.56
2017-08-17T05:03:38.253Z,970.56
2017-08-17T05:04:38.250Z,970.55
2017-08-17T05:05:38.247Z,970.56
2017-08-17T05:06:38.244Z,970.54
2017-08-17T05:07:38.241Z,970.55
2017-08-17T05:08:38.238Z,970.55
2017-08-17T05:09:38.235Z,970.57
2017-08-17T05:10:38.253Z,970.55
2017-08-17T05:11:38.230Z,970.58
2017-08-17T05:12:38.226Z,970.58
2017-08-17T05:13:38.224Z,970.6
2017-08-17T05:14:38.222Z,970.62
2017-08-17T05:15:38.219Z,970.57
2017-08-17T05:16:38.215Z,970.62
2017-08-17T05:17:38.213Z,970.62
2017-08-17T05:18:38.210Z,970.58
2017-08-17T05:19:38.206Z,970.62
2017-08-17T05:20:38.206Z,970.64
2017-08-17T05:21:38.203Z,970.63
2017-08-17T05:22:38.199Z,970.66
2017-08-17T05:23:38.197Z,970.65
2017-08-17T05:24:38.193Z,970.68
2017-08-17T05:25:38.192Z,970.66
2017-08-17T05:26:38.189Z,970.74
2017-08-17T05:27:38.188Z,970.7
2017-08-17T05:28:38.183Z,970.75
2017-08-17T05:29:38.179Z,970.74
2017-08-17T05:30:38.177Z,970.75
2017-08-17T05:31:38.177Z,970.81
2017-08-17T05:32:38.173Z,970.78
2017-08-17T05:33:38.170Z,970.78
2017-08-17T05:34:38.167Z,970.8
2017-08-17T05:35:38.166Z,970.75
2017-08-17T05:36:38.162Z,970.76
2017-08-17T05:37:38.159Z,970.8
2017-08-17T05:38:38.156Z,970.83
2017-08-17T05:39:38.174Z,970.85
2017-08-17T05:40:38.150Z,970.88
2017-08-17T05:41:38.147Z,970.9
2017-08-17T05:42:38.147Z,970.94
2017-08-17T05:43:38.145Z,970.97
2017-08-17T05:44:38.139Z,970.97
2017-08-17T05:45:38.137Z,970.95
2017-08-17T05:46:38.136Z,970.92
2017-08-17T05:47:38.133Z,970.95
2017-08-17T05:48:38.131Z,970.93
2017-08-17T05:49:38.126Z,970.92
2017-08-17T05:50:38.125Z,970.94
2017-08-17T05:51:38.122Z,970.92
2017-08-17T05:52:38.119Z,970.93
2017-08-17T05:53:38.117Z,970.94
2017-08-17T05:54:38.114Z,970.93
2017-08-17T05:55:38.112Z,970.94
2017-08-17T05:56:38.110Z,970.94
2017-08-17T05:57:38.109Z,970.9
2017-08-17T05:58:38.105Z,970.93
2017-08-17T05:59:38.102Z,970.94
2017-08-17T06:00:38.099Z,970.96
2017-08-17T06:01:38.097Z,970.91
2017-08-17T06:02:38.096Z,970.92
2017-08-17T06:03:38.092Z,970.96
2017-08-17T06:04:38.091Z,970.95
2017-08-17T06:05:38.088Z,970.98
2017-08-17T06:06:38.085Z,970.99
2017-08-17T06:07:38.083Z,971
2017-08-17T06:08:38.083Z,970.99
2017-08-17T06:09:38.079Z,970.95
2017-08-17T06:10:38.077Z,970.96
2017-08-17T06:11:38.076Z,970.97
2017-08-17T06:12:38.073Z,971.02
2017-08-17T06:13:38.077Z,971.02
2017-08-17T06:14:38.070Z,971.01
2017-08-17T06:15:38.068Z,971.02
2017-08-17T06:16:38.071Z,971.04
2017-08-17T06:17:38.063Z,971.03
2017-08-17T06:18:38.062Z,971.03
2017-08-17T06:19:38.062Z,971.01
2017-08-17T06:20:38.057Z,971.02
2017-08-17T06:21:38.106Z,971.04
2017-08-17T06:22:38.053Z,971.05
2017-08-17T06:23:38.052Z,971.04
2017-08-17T06:24:38.050Z,971.11
2017-08-17T06:25:38.049Z,971.1
2017-08-17T06:26:38.045Z,971.07
2017-08-17T06:27:38.045Z,971.09
2017-08-17T06:28:38.042Z,971.07
2017-08-17T06:29:38.040Z,971.05
2017-08-17T06:30:38.037Z,971.07
2017-08-17T06:31:38.035Z,971.12
2017-08-17T06:32:38.032Z,971.09
2017-08-17T06:33:38.030Z,971.08
2017-08-17T06:34:38.029Z,971.05
2017-08-17T06:35:38.028Z,971.07
2017-08-17T06:36:38.026Z,971.06
2017-08-17T06:37:38.023Z,971.05
2017-08-17T06:38:38.023Z,971.03
2017-08-17T06:39:38.018Z,971.09
2017-08-17T06:40:38.018Z,971.05
2017-08-17T06:41:38.016Z,971.04
2017-08-17T06:42:38.014Z,971.04
2017-08-17T06:43:38.011Z,971.04
2017-08-17T06:44:38.010Z,971.04
2017-08-17T06:45:38.006Z,971.02
2017-08-17T06:46:38.007Z,971.03
2017-08-17T06:47:38.005Z,971
2017-08-17T06:48:38.024Z,971.02
2017-08-17T06:49:38.000Z,971.02
2017-08-17T06:50:38.000Z,971.01
2017-08-17T06:51:37.998Z,971.03
2017-08-17T06:52:37.998Z,971.06
2017-08-17T06:53:37.996Z,971.06
2017-08-17T06:54:37.994Z,971.11
2017-08-17T06:55:37.991Z,971.15
2017-08-17T06:56:37.990Z,971.12
2017-08-17T06:57:37.988Z,971.13
2017-08-17T06:58:37.989Z,971.14
2017-08-17T06:59:37.985Z,971.15
2017-08-17T07:00:37.984Z,971.15
2017-08-17T07:01:37.982Z,971.2
2017-08-17T07:02:37.981Z,971.16
2017-08-17T07:03:37.980Z,971.16
2017-08-17T07:04:37.979Z,971.21
2017-08-17T07:05:37.975Z,971.23
2017-08-17T07:06:37.975Z,971.21
2017-08-17T07:07:37.973Z,971.26
2017-08-17T07:08:37.972Z,971.25
2017-08-17T07:09:37.972Z,971.26
2017-08-17T07:10:37.970Z,971.23
2017-08-17T07:11:37.970Z,971.24
2017-08-17T07:12:37.966Z,971.26
2017-08-17T07:13:37.966Z,971.29
2017-08-17T07:14:37.965Z,971.27
2017-08-17T07:15:37.963Z,971.29
2017-08-17T07:16:37.962Z,971.28
2017-08-17T07:17:37.959Z,971.27
2017-08-17T07:18:37.959Z,971.29
2017-08-17T07:19:37.957Z,971.35
2017-08-17T07:20:37.956Z,971.35
2017-08-17T07:21:37.955Z,971.34
2017-08-17T07:22:37.953Z,971.33
2017-08-17T07:23:37.952Z,971.29
2017-08-17T07:24:37.950Z,971.31
2017-08-17T07:25:37.950Z,971.33
2017-08-17T07:26:37.950Z,971.39
2017-08-17T07:27:37.949Z,971.36
2017-08-17T07:28:37.947Z,971.4
2017-08-17T07:29:37.945Z,971.39
2017-08-17T07:30:37.944Z,971.38
2017-08-17T07:31:37.947Z,971.38
2017-08-17T07:32:37.943Z,971.39
2017-08-17T07:33:37.943Z,971.4
2017-08-17T07:34:37.941Z,971.4
2017-08-17T07:35:37.942Z,971.45
2017-08-17T07:36:37.942Z,971.42
2017-08-17T07:37:37.939Z,971.39
2017-08-17T07:38:37.938Z,971.38
2017-08-17T07:39:37.938Z,971.36
2017-08-17T07:40:37.939Z,971.33
2017-08-17T07:41:37.935Z,971.36
2017-08-17T07:42:37.935Z,971.3
2017-08-17T07:43:37.935Z,971.3
2017-08-17T07:44:37.933Z,971.32
2017-08-17T07:45:37.932Z,971.28
2017-08-17T07:46:37.932Z,971.27
2017-08-17T07:47:37.931Z,971.22
2017-08-17T07:48:37.929Z,971.18
2017-08-17T07:49:37.930Z,971.17
2017-08-17T07:50:37.927Z,971.18
2017-08-17T07:51:37.928Z,971.11
2017-08-17T07:52:37.926Z,971.13
2017-08-17T07:53:37.925Z,971.14
2017-08-17T07:54:37.924Z,971.12
2017-08-17T07:55:37.921Z,971.12
2017-08-17T07:56:37.922Z,971.13
2017-08-17T07:57:37.923Z,971.14
2017-08-17T07:58:37.921Z,971.12
2017-08-17T07:59:37.918Z,971.1
2017-08-17T08:00:37.918Z,971.09
2017-08-17T08:01:37.917Z,971.1
2017-08-17T08:02:37.916Z,971.05
2017-08-17T08:03:37.913Z,971.06
2017-08-17T08:04:37.913Z,971.09
2017-08-17T08:05:37.913Z,971.09
2017-08-17T08:06:37.909Z,971.1
2017-08-17T08:07:37.908Z,971.06
2017-08-17T08:08:37.908Z,971.08
2017-08-17T08:09:37.908Z,971.07
2017-08-17T08:10:37.905Z,971.12
2017-08-17T08:11:37.903Z,971.08
2017-08-17T08:12:37.904Z,971.07
2017-08-17T08:13:37.902Z,971.1
2017-08-17T08:14:37.900Z,971.08
2017-08-17T08:15:37.899Z,971.09
2017-08-17T08:16:37.899Z,971.11
2017-08-17T08:17:37.897Z,971.09
2017-08-17T08:18:37.895Z,971.05
2017-08-17T08:19:37.895Z,971.15
2017-08-17T08:20:37.896Z,971.16
2017-08-17T08:21:37.891Z,971.21
2017-08-17T08:22:37.890Z,971.22
2017-08-17T08:23:37.889Z,971.25
2017-08-17T08:24:37.887Z,971.26
2017-08-17T08:25:37.885Z,971.27
2017-08-17T08:26:37.884Z,971.29
2017-08-17T08:27:37.883Z,971.31
2017-08-17T08:28:37.881Z,971.3
2017-08-17T08:29:37.879Z,971.29
2017-08-17T08:30:37.878Z,971.25
2017-08-17T08:31:37.876Z,971.28
2017-08-17T08:32:37.875Z,971.3
2017-08-17T08:33:37.875Z,971.32
2017-08-17T08:34:37.872Z,971.28
2017-08-17T08:35:37.871Z,971.29
2017-08-17T08:36:37.870Z,971.31
2017-08-17T08:37:37.867Z,971.32
2017-08-17T08:38:37.868Z,971.29
2017-08-17T08:39:37.863Z,971.28
2017-08-17T08:40:37.864Z,971.27
2017-08-17T08:41:37.861Z,971.28
2017-08-17T08:42:37.859Z,971.27
2017-08-17T08:43:37.858Z,971.26
2017-08-17T08:44:37.857Z,971.26
2017-08-17T08:45:37.855Z,971.28
2017-08-17T08:46:37.854Z,971.25
2017-08-17T08:47:37.852Z,971.24
2017-08-17T08:48:37.850Z,971.24
2017-08-17T08:49:37.850Z,971.23
2017-08-17T08:50:37.846Z,971.19
2017-08-17T08:51:37.846Z,971.19
2017-08-17T08:52:37.843Z,971.14
2017-08-17T08:53:37.842Z,971.16
2017-08-17T08:54:37.841Z,971.14
2017-08-17T08:55:37.839Z,971.14
2017-08-17T08:56:37.837Z,971.17
2017-08-17T08:57:37.837Z,971.11
2017-08-17T08:58:37.835Z,971.1
2017-08-17T08:59:37.832Z,971.09
2017-08-17T09:00:37.831Z,971.09
2017-08-17T09:01:37.829Z,971.1
2017-08-17T09:02:37.832Z,971.08
2017-08-17T09:03:37.825Z,971.09
2017-08-17T09:04:37.827Z,971.12
2017-08-17T09:05:37.826Z,971.12
2017-08-17T09:06:37.820Z,971.1
2017-08-17T09:07:37.822Z,971.12
2017-08-17T09:08:37.818Z,971.11
2017-08-17T09:09:37.816Z,971.08
2017-08-17T09:10:37.815Z,971.08
2017-08-17T09:11:37.813Z,971.1
2017-08-17T09:12:37.812Z,971.03
2017-08-17T09:13:37.810Z,971.08
2017-08-17T09:14:37.810Z,971.03
2017-08-17T09:15:37.808Z,971.01
2017-08-17T09:16:37.804Z,970.98
2017-08-17T09:17:37.805Z,970.92
2017-08-17T09:18:37.803Z,970.93
2017-08-17T09:19:37.800Z,970.96
2017-08-17T09:20:37.801Z,970.91
2017-08-17T09:21:37.797Z,970.91
2017-08-17T09:22:37.797Z,970.93
2017-08-17T09:23:37.793Z,970.95
2017-08-17T09:24:37.791Z,970.91
2017-08-17T09:25:37.791Z,970.91
2017-08-17T09:26:37.790Z,970.95
2017-08-17T09:27:37.787Z,970.91
2017-08-17T09:28:37.786Z,970.92
2017-08-17T09:29:37.784Z,970.96
2017-08-17T09:30:37.783Z,970.92
2017-08-17T09:31:37.780Z,970.91
2017-08-17T09:32:37.780Z,970.89
2017-08-17T09:33:37.778Z,970.91
2017-08-17T09:34:37.774Z,970.9
2017-08-17T09:35:37.774Z,970.93
2017-08-17T09:36:37.773Z,970.87
2017-08-17T09:37:37.770Z,970.87
2017-08-17T09:38:37.769Z,970.86
2017-08-17T09:39:37.766Z,970.87
2017-08-17T09:40:37.765Z,970.82
2017-08-17T09:41:37.763Z,970.83
2017-08-17T09:42:37.766Z,970.77
2017-08-17T09:43:37.759Z,970.78
2017-08-17T09:44:37.759Z,970.76
2017-08-17T09:45:37.756Z,970.72
2017-08-17T09:46:37.754Z,970.71
2017-08-17T09:47:37.753Z,970.71
2017-08-17T09:48:37.752Z,970.72
2017-08-17T09:49:37.752Z,970.7
2017-08-17T09:50:37.749Z,970.71
2017-08-17T09:51:37.748Z,970.7
2017-08-17T09:52:37.745Z,970.7
2017-08-17T09:53:37.744Z,970.69
2017-08-17T09:54:37.741Z,970.69
2017-08-17T09:55:37.741Z,970.71
2017-08-17T09:56:37.739Z,970.65
2017-08-17T09:57:37.741Z,970.66
2017-08-17T09:58:37.736Z,970.68
2017-08-17T09:59:37.734Z,970.66
2017-08-17T10:00:37.731Z,970.67
2017-08-17T10:01:37.731Z,970.65
2017-08-17T10:02:37.729Z,970.67
2017-08-17T10:03:37.727Z,970.66
2017-08-17T10:04:37.724Z,970.67
2017-08-17T10:05:37.723Z,970.69
2017-08-17T10:06:37.723Z,970.71
2017-08-17T10:07:37.721Z,970.69
2017-08-17T10:08:37.719Z,970.64
2017-08-17T10:09:37.717Z,970.62
2017-08-17T10:10:37.716Z,970.63
2017-08-17T10:11:37.712Z,970.62
2017-08-17T10:12:37.712Z,970.6
2017-08-17T10:13:37.711Z,970.58
2017-08-17T10:14:37.708Z,970.6
2017-08-17T10:15:37.708Z,970.57
2017-08-17T10:16:37.706Z,970.56
2017-08-17T10:17:37.704Z,970.53
2017-08-17T10:18:37.701Z,970.53
2017-08-17T10:19:37.701Z,970.57
2017-08-17T10:20:37.699Z,970.52
2017-08-17T10:21:37.698Z,970.52
2017-08-17T10:22:37.695Z,970.52
2017-08-17T10:23:37.693Z,970.49
2017-08-17T10:24:37.693Z,970.49
2017-08-17T10:25:37.691Z,970.5
2017-08-17T10:26:37.689Z,970.5
2017-08-17T10:27:37.689Z,970.46
2017-08-17T10:28:37.688Z,970.46
2017-08-17T10:29:37.683Z,970.43
2017-08-17T10:30:37.683Z,970.41
2017-08-17T10:31:37.682Z,970.41
2017-08-17T10:32:37.681Z,970.4
2017-08-17T10:33:37.678Z,970.37
2017-08-17T10:34:37.677Z,970.44
2017-08-17T10:35:37.675Z,970.42
2017-08-17T10:36:37.674Z,970.49
2017-08-17T10:37:37.672Z,970.48
2017-08-17T10:38:37.672Z,970.48
2017-08-17T10:39:37.669Z,970.45
2017-08-17T10:40:37.668Z,970.45
2017-08-17T10:41:37.673Z,970.41
2017-08-17T10:42:37.665Z,970.42
2017-08-17T10:43:37.665Z,970.43
2017-08-17T10:44:37.663Z,970.39
2017-08-17T10:45:37.662Z,970.4
2017-08-17T10:46:37.659Z,970.42
2017-08-17T10:47:37.658Z,970.41
2017-08-17T10:48:37.656Z,970.38
2017-08-17T10:49:37.655Z,970.44
2017-08-17T10:50:37.654Z,970.43
2017-08-17T10:51:37.653Z,970.39
2017-08-17T10:52:37.650Z,970.38
2017-08-17T10:53:37.651Z,970.39
2017-08-17T10:54:37.649Z,970.42
2017-08-17T10:55:37.647Z,970.4
2017-08-17T10:56:37.647Z,970.39
2017-08-17T10:57:37.644Z,970.34
2017-08-17T10:58:37.643Z,970.36
2017-08-17T10:59:37.641Z,970.4
2017-08-17T11:00:37.639Z,970.37
2017-08-17T11:01:37.639Z,970.37
2017-08-17T11:02:37.636Z,970.4
2017-08-17T11:03:37.636Z,970.36
2017-08-17T11:04:37.634Z,970.36
2017-08-17T11:05:37.639Z,970.34
2017-08-17T11:06:37.632Z,970.39
2017-08-17T11:07:37.631Z,970.38
2017-08-17T11:08:37.630Z,970.36
2017-08-17T11:09:37.628Z,970.38
2017-08-17T11:10:37.627Z,970.39
2017-08-17T11:11:37.630Z,970.35
2017-08-17T11:12:37.625Z,970.37
2017-08-17T11:13:37.622Z,970.38
2017-08-17T11:14:37.622Z,970.36
2017-08-17T11:15:37.620Z,970.32
2017-08-17T11:16:37.618Z,970.31
2017-08-17T11:17:37.618Z,970.32
2017-08-17T11:18:37.616Z,970.31
2017-08-17T11:19:37.615Z,970.31
2017-08-17T11:20:37.613Z,970.25
2017-08-17T11:21:37.613Z,970.28
2017-08-17T11:22:37.610Z,970.26
2017-08-17T11:23:37.610Z,970.25
2017-08-17T11:24:37.608Z,970.23
2017-08-17T11:25:37.608Z,970.24
2017-08-17T11:26:37.607Z,970.29
2017-08-17T11:27:37.604Z,970.22
2017-08-17T11:28:37.601Z,970.24
2017-08-17T11:29:37.602Z,970.24
2017-08-17T11:30:37.600Z,970.23
2017-08-17T11:31:37.599Z,970.22
2017-08-17T11:32:37.597Z,970.2
2017-08-17T11:33:37.596Z,970.23
2017-08-17T11:34:37.596Z,970.21
2017-08-17T11:35:37.594Z,970.22
2017-08-17T11:36:37.592Z,970.21
2017-08-17T11:37:37.591Z,970.22
2017-08-17T11:38:37.589Z,970.22
2017-08-17T11:39:37.589Z,970.22
2017-08-17T11:40:37.588Z,970.23
2017-08-17T11:41:37.586Z,970.21
2017-08-17T11:42:37.586Z,970.23
2017-08-17T11:43:37.584Z,970.23
2017-08-17T11:44:37.582Z,970.23
2017-08-17T11:45:37.581Z,970.24
2017-08-17T11:46:37.579Z,970.21
2017-08-17T11:47:37.579Z,970.18
2017-08-17T11:48:37.576Z,970.21
2017-08-17T11:49:37.575Z,970.2
2017-08-17T11:50:37.575Z,970.18
2017-08-17T11:51:37.575Z,970.19
2017-08-17T11:52:37.574Z,970.2
2017-08-17T11:53:37.574Z,970.19
2017-08-17T11:54:37.570Z,970.21
2017-08-17T11:55:37.569Z,970.18
2017-08-17T11:56:37.569Z,970.15
2017-08-17T11:57:37.568Z,970.16
2017-08-17T11:58:37.565Z,970.14
2017-08-17T11:59:37.564Z,970.16
2017-08-17T12:00:37.564Z,970.1
2017-08-17T12:01:37.561Z,970.11
2017-08-17T12:02:37.563Z,970.08
2017-08-17T12:03:37.559Z,970.09
2017-08-17T12:04:37.558Z,970.07
2017-08-17T12:05:37.556Z,970.11
2017-08-17T12:06:37.557Z,970.1
2017-08-17T12:07:37.565Z,970.12
2017-08-17T12:08:37.554Z,970.1
2017-08-17T12:09:37.551Z,970.08
2017-08-17T12:10:37.550Z,970.07
2017-08-17T12:11:37.549Z,970.1
2017-08-17T12:12:37.549Z,970.06
2017-08-17T12:13:37.546Z,970.06
2017-08-17T12:14:37.547Z,970.06
2017-08-17T12:15:37.544Z,970.02
2017-08-17T12:16:37.543Z,970.02
2017-08-17T12:17:37.544Z,970.01
2017-08-17T12:18:37.543Z,970
2017-08-17T12:19:37.540Z,969.96
2017-08-17T12:20:37.540Z,969.97
2017-08-17T12:21:37.540Z,969.96
2017-08-17T12:22:37.537Z,969.92
2017-08-17T12:23:37.537Z,969.99
2017-08-17T12:24:37.534Z,969.94
2017-08-17T12:25:37.534Z,969.94
2017-08-17T12:26:37.531Z,969.95
2017-08-17T12:27:37.532Z,969.91
2017-08-17T12:28:37.531Z,969.93
2017-08-17T12:29:37.528Z,969.89
2017-08-17T12:30:37.527Z,969.87